Time;durP1;ratioP1;P1;durP2;ratioP2;P2;SDS_P1;SDS_P2;PMS_P1;PMS_P2;Temp;Humidity;BMP_temperature;BMP_pressure;BME280_temperature;BME280_humidity;BME280_pressure;Samples;Min_cycle;Max_cycle;Signal;HPM_P1;HPM_P2
2024/04/14 00:02:27;;;;;;;6.90;6.20;;;15.10;79.50;;;;;;6776136;26;20455;-64
2024/04/14 00:05:29;;;;;;;6.73;6.03;;;15.00;79.60;;;;;;6776094;26;20470;-66
2024/04/14 00:08:31;;;;;;;9.00;7.47;;;15.00;80.10;;;;;;6775864;26;20777;-63
2024/04/14 00:11:32;;;;;;;8.93;6.30;;;15.00;79.90;;;;;;6775504;26;20491;-64
2024/04/14 00:14:34;;;;;;;6.87;6.23;;;15.00;80.10;;;;;;6775298;26;20525;-64
2024/04/14 00:17:37;;;;;;;8.03;6.50;;;14.90;80.70;;;;;;6774469;26;20455;-65
2024/04/14 00:20:39;;;;;;;9.43;6.63;;;14.90;80.80;;;;;;6775924;26;20459;-64
2024/04/14 00:23:41;;;;;;;9.97;6.50;;;14.90;80.90;;;;;;6774580;26;20519;-64
2024/04/14 00:26:42;;;;;;;7.93;5.90;;;14.80;81.10;;;;;;6775816;26;20823;-65
2024/04/14 00:29:44;;;;;;;9.60;6.80;;;14.80;81.20;;;;;;6775760;26;20440;-65
2024/04/14 00:32:47;;;;;;;10.90;6.70;;;14.80;81.30;;;;;;6775659;26;20927;-64
2024/04/14 00:35:49;;;;;;;7.53;5.70;;;14.80;81.40;;;;;;6775676;26;20459;-64
2024/04/14 00:38:50;;;;;;;8.70;6.80;;;14.80;81.60;;;;;;6775221;26;20868;-66
2024/04/14 00:41:52;;;;;;;10.90;6.90;;;14.70;81.50;;;;;;6774972;26;20455;-64
2024/04/14 00:44:54;;;;;;;10.70;6.57;;;14.70;81.70;;;;;;6775260;26;20467;-65
2024/04/14 00:47:56;;;;;;;8.27;5.70;;;14.60;81.80;;;;;;6775233;26;20782;-65
2024/04/14 00:50:59;;;;;;;8.70;6.37;;;14.60;82.10;;;;;;6775040;26;20451;-64
2024/04/14 00:54:02;;;;;;;7.20;5.87;;;14.60;81.90;;;;;;6775055;26;20499;-65
2024/04/14 00:57:04;;;;;;;7.43;6.30;;;14.60;81.80;;;;;;6774783;26;20517;-64
2024/04/14 01:00:08;;;;;;;7.73;6.40;;;14.50;82.30;;;;;;6774928;26;20492;-65
2024/04/14 01:03:10;;;;;;;10.40;6.60;;;14.50;82.00;;;;;;6774447;26;20562;-64
2024/04/14 01:06:12;;;;;;;10.07;6.60;;;14.50;82.20;;;;;;6774667;26;20444;-64
2024/04/14 01:09:15;;;;;;;8.23;6.00;;;14.50;82.40;;;;;;6775175;26;20451;-64
2024/04/14 01:12:17;;;;;;;8.23;6.90;;;14.50;82.20;;;;;;6774860;26;20452;-64
2024/04/14 01:15:19;;;;;;;10.90;6.70;;;14.50;82.00;;;;;;6774923;26;20548;-65
2024/04/14 01:18:21;;;;;;;9.00;6.73;;;14.50;82.60;;;;;;6774487;26;20447;-64
2024/04/14 01:21:23;;;;;;;8.27;6.70;;;14.50;82.70;;;;;;6774694;26;20443;-65
2024/04/14 01:24:25;;;;;;;9.00;7.43;;;14.40;82.90;;;;;;6782724;26;20541;-64
2024/04/14 01:27:26;;;;;;;8.73;6.93;;;14.40;82.90;;;;;;6775469;26;20508;-65
2024/04/14 01:30:28;;;;;;;9.00;6.50;;;14.40;82.70;;;;;;6773612;26;20770;-64
2024/04/14 01:33:30;;;;;;;10.23;7.20;;;14.40;82.70;;;;;;6776021;26;20447;-64
2024/04/14 01:36:32;;;;;;;6.50;5.90;;;14.40;82.20;;;;;;6773818;26;20504;-63
2024/04/14 01:39:35;;;;;;;10.30;6.90;;;14.40;82.20;;;;;;6774290;26;20989;-65
2024/04/14 01:42:37;;;;;;;7.77;5.97;;;14.30;82.40;;;;;;6774671;26;20786;-65
2024/04/14 01:45:39;;;;;;;8.70;5.80;;;14.30;82.40;;;;;;6774737;26;20767;-64
2024/04/14 01:48:41;;;;;;;7.83;5.87;;;14.30;82.50;;;;;;6774585;26;20459;-64
2024/04/14 01:51:43;;;;;;;6.90;6.20;;;14.30;82.70;;;;;;6774447;26;20530;-65
2024/04/14 01:54:45;;;;;;;8.47;6.60;;;14.30;82.40;;;;;;6775876;26;20471;-65
2024/04/14 01:57:47;;;;;;;6.93;5.47;;;14.30;82.40;;;;;;6775380;26;20783;-64
2024/04/14 02:00:49;;;;;;;6.43;5.33;;;14.30;82.40;;;;;;6774455;26;20496;-65
2024/04/14 02:03:51;;;;;;;9.83;6.27;;;14.30;82.30;;;;;;6774247;26;20444;-65
2024/04/14 02:06:53;;;;;;;7.07;5.83;;;14.30;82.20;;;;;;6773769;26;20448;-65
2024/04/14 02:09:55;;;;;;;7.10;6.10;;;14.30;82.30;;;;;;6774137;26;20487;-64
2024/04/14 02:12:56;;;;;;;8.30;6.20;;;14.20;82.50;;;;;;6772170;26;20935;-65
2024/04/14 02:16:00;;;;;;;6.93;5.67;;;14.20;82.60;;;;;;6773528;26;20927;-65
2024/04/14 02:19:02;;;;;;;7.37;6.40;;;14.20;82.80;;;;;;6773387;26;20468;-65
2024/04/14 02:22:04;;;;;;;6.50;5.70;;;14.10;83.10;;;;;;6773357;26;20511;-64
2024/04/14 02:25:09;;;;;;;8.03;5.80;;;14.10;83.30;;;;;;6773186;26;20467;-64
2024/04/14 02:28:11;;;;;;;8.00;6.30;;;14.10;83.30;;;;;;6773605;26;20459;-65
2024/04/14 02:31:12;;;;;;;7.13;5.40;;;14.10;83.50;;;;;;6772874;26;20495;-65
2024/04/14 02:34:14;;;;;;;10.43;6.07;;;14.10;83.40;;;;;;6773173;26;20462;-64
2024/04/14 02:37:16;;;;;;;6.63;5.93;;;14.10;83.40;;;;;;6771225;26;20467;-65
2024/04/14 02:40:18;;;;;;;9.57;6.03;;;14.10;83.40;;;;;;6773323;26;20939;-64
2024/04/14 02:43:20;;;;;;;7.13;6.10;;;14.10;83.60;;;;;;6772789;26;20444;-64
2024/04/14 02:46:21;;;;;;;7.00;5.50;;;14.10;83.80;;;;;;6774611;26;20773;-64
2024/04/14 02:49:24;;;;;;;6.33;5.73;;;14.00;84.00;;;;;;6776921;26;20538;-64
2024/04/14 02:52:26;;;;;;;6.37;5.63;;;14.00;84.10;;;;;;6776941;26;20518;-65
2024/04/14 02:55:28;;;;;;;7.57;5.87;;;14.00;84.10;;;;;;6776952;26;20508;-64
2024/04/14 02:58:30;;;;;;;12.67;6.90;;;13.90;84.20;;;;;;6777294;26;20451;-65
2024/04/14 03:01:32;;;;;;;8.70;5.67;;;13.90;84.40;;;;;;6776739;26;20459;-65
2024/04/14 03:04:34;;;;;;;10.00;6.53;;;13.90;84.40;;;;;;6776653;26;20844;-64
2024/04/14 03:07:36;;;;;;;7.27;5.80;;;13.90;84.40;;;;;;6777175;26;20455;-63
2024/04/14 03:10:38;;;;;;;10.37;6.20;;;13.90;84.40;;;;;;6776647;26;20459;-63
2024/04/14 03:13:40;;;;;;;9.97;6.33;;;13.90;84.30;;;;;;6776895;26;20500;-63
2024/04/14 03:16:41;;;;;;;8.90;6.30;;;13.90;84.40;;;;;;6776393;26;20510;-63
2024/04/14 03:19:43;;;;;;;10.10;6.40;;;13.90;84.60;;;;;;6776709;26;20455;-65
2024/04/14 03:22:45;;;;;;;13.43;5.73;;;13.90;84.60;;;;;;6776550;26;20451;-64
2024/04/14 03:25:47;;;;;;;7.53;5.73;;;13.80;84.50;;;;;;6776364;26;20771;-65
2024/04/14 03:28:49;;;;;;;8.63;6.20;;;13.80;84.60;;;;;;6776545;26;20510;-64
2024/04/14 03:31:50;;;;;;;7.43;5.57;;;13.80;84.70;;;;;;6776221;26;20440;-65
2024/04/14 03:34:52;;;;;;;11.70;7.00;;;13.90;84.60;;;;;;6776399;26;20460;-64
2024/04/14 03:37:54;;;;;;;7.07;5.97;;;13.80;84.60;;;;;;6776389;26;20452;-63
2024/04/14 03:40:56;;;;;;;10.03;6.00;;;13.90;84.50;;;;;;6776522;26;20448;-63
2024/04/14 03:43:58;;;;;;;10.60;6.30;;;13.80;84.50;;;;;;6776422;26;20515;-64
2024/04/14 03:47:00;;;;;;;7.90;5.80;;;13.80;84.60;;;;;;6776542;26;20484;-64
2024/04/14 03:50:06;;;;;;;8.00;5.90;;;13.80;84.70;;;;;;6776315;26;20506;-64
2024/04/14 03:53:08;;;;;;;8.17;6.30;;;13.70;85.00;;;;;;6776226;26;20487;-64
2024/04/14 03:56:09;;;;;;;7.30;6.07;;;13.70;85.10;;;;;;6776211;26;20468;-64
2024/04/14 03:59:11;;;;;;;9.07;6.03;;;13.70;85.10;;;;;;6775159;26;20451;-64
2024/04/14 04:02:13;;;;;;;11.50;5.53;;;13.70;85.10;;;;;;6776826;26;20464;-64
2024/04/14 04:05:15;;;;;;;8.50;7.10;;;13.60;85.10;;;;;;6779010;26;20452;-63
2024/04/14 04:08:16;;;;;;;13.70;6.87;;;13.60;85.40;;;;;;6777028;26;20508;-63
2024/04/14 04:11:18;;;;;;;8.33;6.00;;;13.50;85.90;;;;;;6776254;26;20475;-63
2024/04/14 04:14:20;;;;;;;8.97;6.10;;;13.40;86.20;;;;;;6775856;26;20447;-64
2024/04/14 04:17:22;;;;;;;7.70;5.63;;;13.50;85.90;;;;;;6775813;26;20511;-62
2024/04/14 04:20:24;;;;;;;7.63;5.87;;;13.50;85.60;;;;;;6775887;26;20508;-64
2024/04/14 04:23:27;;;;;;;8.03;5.40;;;13.40;85.70;;;;;;6775827;26;20452;-65
2024/04/14 04:26:29;;;;;;;10.60;5.13;;;13.40;85.90;;;;;;6775380;26;20507;-64
2024/04/14 04:29:31;;;;;;;8.80;6.27;;;13.40;86.00;;;;;;6775593;26;20459;-64
2024/04/14 04:32:32;;;;;;;9.43;6.17;;;13.30;85.90;;;;;;6775398;26;20505;-65
2024/04/14 04:35:37;;;;;;;6.50;5.87;;;13.30;86.40;;;;;;6776003;26;20456;-65
2024/04/14 04:38:42;;;;;;;6.33;5.70;;;13.30;86.40;;;;;;6775316;26;20884;-65
2024/04/14 04:41:44;;;;;;;13.00;5.20;;;13.30;86.50;;;;;;6774370;26;20557;-66
2024/04/14 04:44:46;;;;;;;6.17;5.57;;;13.30;86.60;;;;;;6775595;26;20460;-64
2024/04/14 04:47:48;;;;;;;6.63;5.83;;;13.30;86.60;;;;;;6775708;26;21474;-65
2024/04/14 04:50:50;;;;;;;6.73;6.03;;;13.40;86.50;;;;;;6776972;26;20562;-65
2024/04/14 04:53:52;;;;;;;8.47;6.17;;;13.30;86.60;;;;;;6775394;26;20455;-64
2024/04/14 04:56:54;;;;;;;6.97;6.10;;;13.40;86.40;;;;;;6775242;26;20475;-65
2024/04/14 04:59:56;;;;;;;7.33;6.20;;;13.40;86.40;;;;;;6772854;26;20467;-64
2024/04/14 05:02:57;;;;;;;9.00;6.00;;;13.40;86.30;;;;;;6773978;26;20459;-65
2024/04/14 05:06:01;;;;;;;9.83;6.50;;;13.40;86.30;;;;;;6773974;26;20824;-64
2024/04/14 05:09:03;;;;;;;10.53;6.60;;;13.50;86.20;;;;;;6775414;26;20444;-64
2024/04/14 05:12:05;;;;;;;7.10;6.40;;;13.50;86.20;;;;;;6775349;26;20970;-64
2024/04/14 05:15:07;;;;;;;8.67;7.20;;;13.60;86.00;;;;;;6774253;26;20541;-65
2024/04/14 05:18:09;;;;;;;7.33;6.63;;;13.70;85.60;;;;;;6774355;26;20467;-64
2024/04/14 05:21:11;;;;;;;8.37;6.53;;;13.80;85.30;;;;;;6773827;26;20896;-64
2024/04/14 05:24:13;;;;;;;7.50;6.23;;;13.90;85.00;;;;;;6773551;26;20515;-64
2024/04/14 05:27:16;;;;;;;9.30;5.70;;;13.90;84.70;;;;;;6773348;26;20474;-64
2024/04/14 05:30:18;;;;;;;7.93;5.63;;;14.00;84.50;;;;;;6771703;26;20501;-64
2024/04/14 05:33:19;;;;;;;9.37;6.67;;;14.10;84.40;;;;;;6773355;26;20459;-64
2024/04/14 05:36:21;;;;;;;8.10;6.60;;;14.20;84.20;;;;;;6773226;26;20864;-64
2024/04/14 05:39:23;;;;;;;8.73;6.40;;;14.30;83.90;;;;;;6773109;26;20500;-64
2024/04/14 05:42:25;;;;;;;8.90;6.77;;;14.40;84.70;;;;;;6773189;26;20975;-64
2024/04/14 05:45:28;;;;;;;6.87;5.77;;;14.50;83.60;;;;;;6772967;26;20892;-64
2024/04/14 05:48:30;;;;;;;6.30;5.70;;;14.60;83.00;;;;;;6773357;26;20455;-65
2024/04/14 05:51:32;;;;;;;10.73;6.23;;;14.70;82.50;;;;;;6773227;26;20542;-64
2024/04/14 05:54:34;;;;;;;9.73;5.70;;;14.90;82.20;;;;;;6773659;26;20463;-65
2024/04/14 05:57:36;;;;;;;7.90;5.73;;;15.00;82.00;;;;;;6773433;26;20584;-65
2024/04/14 06:00:38;;;;;;;7.27;5.50;;;15.10;81.20;;;;;;6773762;26;20914;-65
2024/04/14 06:03:40;;;;;;;7.37;5.33;;;15.20;80.90;;;;;;6773122;26;20492;-65
2024/04/14 06:06:42;;;;;;;7.93;5.67;;;15.40;80.80;;;;;;6772863;26;20487;-64
2024/04/14 06:09:44;;;;;;;6.17;5.17;;;15.50;80.40;;;;;;6772262;26;20488;-65
2024/04/14 06:12:46;;;;;;;7.80;5.10;;;15.70;79.90;;;;;;6772146;26;20451;-65
2024/04/14 06:15:48;;;;;;;6.37;5.30;;;15.90;79.70;;;;;;6775560;26;20826;-64
2024/04/14 06:18:50;;;;;;;5.00;4.50;;;16.00;78.90;;;;;;6771833;26;20452;-65
2024/04/14 06:21:52;;;;;;;5.50;4.90;;;16.10;77.90;;;;;;6774911;26;20540;-64
2024/04/14 06:24:54;;;;;;;7.23;4.80;;;16.20;77.50;;;;;;6777118;26;20505;-65
2024/04/14 06:27:56;;;;;;;8.73;5.10;;;16.40;77.30;;;;;;6777210;26;20507;-65
2024/04/14 06:30:58;;;;;;;5.50;4.93;;;16.50;77.20;;;;;;6778185;26;20526;-64
2024/04/14 06:34:00;;;;;;;8.67;5.30;;;16.60;76.60;;;;;;6778038;26;20519;-64
2024/04/14 06:37:02;;;;;;;6.70;5.00;;;16.80;76.70;;;;;;6781451;26;20451;-64
2024/04/14 06:40:05;;;;;;;6.63;4.93;;;17.00;76.30;;;;;;6778855;26;20451;-63
2024/04/14 06:43:06;;;;;;;5.37;4.87;;;17.10;75.40;;;;;;6778037;26;20463;-63
2024/04/14 06:46:08;;;;;;;5.20;4.20;;;17.30;75.10;;;;;;6777879;26;20507;-64
2024/04/14 06:49:10;;;;;;;6.73;4.73;;;17.50;73.90;;;;;;6777629;26;20448;-64
2024/04/14 06:52:12;;;;;;;6.70;5.10;;;17.70;74.10;;;;;;6778260;26;20880;-64
2024/04/14 06:55:15;;;;;;;6.00;4.90;;;17.90;73.00;;;;;;6778644;26;20529;-64
2024/04/14 06:58:18;;;;;;;4.83;4.43;;;18.00;72.50;;;;;;6778031;26;20557;-65
2024/04/14 07:01:19;;;;;;;4.63;4.10;;;18.10;71.80;;;;;;6778570;26;20496;-64
2024/04/14 07:04:21;;;;;;;4.90;4.27;;;18.10;71.60;;;;;;6779418;26;20510;-65
2024/04/14 07:07:23;;;;;;;6.00;4.10;;;18.20;71.50;;;;;;6781829;26;20499;-64
2024/04/14 07:10:25;;;;;;;6.30;5.07;;;18.20;70.60;;;;;;6781797;26;20463;-63
2024/04/14 07:13:27;;;;;;;4.40;4.00;;;18.40;70.90;;;;;;6783751;26;20451;-64
2024/04/14 07:16:29;;;;;;;4.37;3.70;;;18.50;70.30;;;;;;6786426;26;20534;-64
2024/04/14 07:19:31;;;;;;;6.23;3.60;;;18.60;66.70;;;;;;6784084;26;20511;-64
2024/04/14 07:22:33;;;;;;;4.47;3.80;;;18.70;66.80;;;;;;6789020;26;20456;-64
2024/04/14 07:25:35;;;;;;;11.63;4.53;;;18.90;67.20;;;;;;6786836;26;20535;-64
2024/04/14 07:28:37;;;;;;;4.07;3.70;;;19.10;66.30;;;;;;6780247;26;20770;-64
2024/04/14 07:31:39;;;;;;;6.07;3.70;;;19.20;66.00;;;;;;6778808;26;20269;-64
2024/04/14 07:34:41;;;;;;;8.27;4.20;;;19.30;65.20;;;;;;6779024;26;20681;-63
2024/04/14 07:37:43;;;;;;;4.50;3.57;;;19.50;65.10;;;;;;6778974;26;20249;-64
2024/04/14 07:40:45;;;;;;;4.23;3.70;;;19.60;64.20;;;;;;6777143;26;20353;-63
2024/04/14 07:43:47;;;;;;;4.17;3.47;;;19.50;64.10;;;;;;6776904;26;20222;-63
2024/04/14 07:46:49;;;;;;;6.67;3.80;;;19.40;63.10;;;;;;6776844;26;20238;-64
2024/04/14 07:49:51;;;;;;;8.73;3.70;;;19.30;64.00;;;;;;6777517;26;20233;-64
2024/04/14 07:52:53;;;;;;;5.13;4.03;;;19.30;64.40;;;;;;6777354;26;20554;-64
2024/04/14 07:55:55;;;;;;;3.63;3.33;;;19.40;63.00;;;;;;6777410;26;20238;-64
2024/04/14 07:58:57;;;;;;;3.43;3.13;;;19.50;60.80;;;;;;6781839;26;20238;-65
2024/04/14 08:01:59;;;;;;;3.30;3.00;;;19.60;59.90;;;;;;6789431;26;20226;-65
2024/04/14 08:05:01;;;;;;;6.00;3.70;;;19.60;59.70;;;;;;6788396;26;20261;-65
2024/04/14 08:08:03;;;;;;;3.40;2.50;;;19.60;60.00;;;;;;6785934;26;20448;-63
2024/04/14 08:11:07;;;;;;;3.80;3.13;;;19.50;56.50;;;;;;6775018;26;20226;-64
2024/04/14 08:14:10;;;;;;;3.07;2.53;;;19.40;58.00;;;;;;6775785;26;20261;-64
2024/04/14 08:17:12;;;;;;;3.00;2.70;;;19.50;57.10;;;;;;6775507;26;20230;-65
2024/04/14 08:20:14;;;;;;;3.67;3.07;;;19.70;56.20;;;;;;6784919;26;20534;-64
2024/04/14 08:23:16;;;;;;;3.13;2.83;;;19.80;56.10;;;;;;6775850;26;20314;-65
2024/04/14 08:26:17;;;;;;;3.93;2.87;;;20.00;55.10;;;;;;6776314;26;20550;-64
2024/04/14 08:29:21;;;;;;;2.90;2.37;;;20.20;55.10;;;;;;6774506;26;20237;-64
2024/04/14 08:32:22;;;;;;;6.27;3.30;;;20.30;53.20;;;;;;6775101;26;20666;-65
2024/04/14 08:35:24;;;;;;;2.83;2.63;;;20.40;54.20;;;;;;6774974;26;20222;-65
2024/04/14 08:38:26;;;;;;;3.93;3.33;;;20.50;55.00;;;;;;6774958;26;20234;-65
2024/04/14 08:41:31;;;;;;;4.27;3.70;;;20.40;54.90;;;;;;6774988;26;20256;-66
2024/04/14 08:44:36;;;;;;;3.10;2.80;;;20.40;55.20;;;;;;6774376;26;20225;-65
2024/04/14 08:47:39;;;;;;;3.00;2.80;;;20.30;55.10;;;;;;6775191;26;20272;-65
2024/04/14 08:50:41;;;;;;;4.43;3.00;;;20.30;55.60;;;;;;6775227;26;20218;-65
2024/04/14 08:53:44;;;;;;;2.97;2.77;;;20.40;54.00;;;;;;6775157;26;20307;-65
2024/04/14 08:56:54;;;;;;;3.90;2.80;;;20.50;54.20;;;;;;6775223;26;20294;-65
2024/04/14 08:59:58;;;;;;;3.47;3.13;;;20.40;52.90;;;;;;6774770;26;20270;-65
2024/04/14 09:03:01;;;;;;;2.70;2.50;;;20.40;53.50;;;;;;6775670;26;20226;-65
2024/04/14 09:06:05;;;;;;;3.57;2.80;;;20.40;52.50;;;;;;6775381;26;20771;-66
2024/04/14 09:09:08;;;;;;;3.03;2.80;;;20.40;53.00;;;;;;6779492;26;20253;-65
2024/04/14 09:12:11;;;;;;;6.80;2.87;;;20.50;53.20;;;;;;6789509;26;20291;-65
2024/04/14 09:15:13;;;;;;;2.70;2.50;;;20.70;52.50;;;;;;6786944;26;20241;-65
2024/04/14 09:18:14;;;;;;;3.40;3.10;;;20.50;52.10;;;;;;6782522;26;20317;-65
2024/04/14 09:21:16;;;;;;;2.80;2.60;;;20.70;53.70;;;;;;6782694;26;20226;-66
2024/04/14 09:24:30;;;;;;;4.37;3.20;;;20.90;53.20;;;;;;6775789;26;20678;-66
2024/04/14 09:27:32;;;;;;;4.40;2.80;;;21.10;52.60;;;;;;6774575;26;20245;-66
2024/04/14 09:30:34;;;;;;;2.60;2.40;;;21.30;51.80;;;;;;6774361;26;20226;-65
2024/04/14 09:33:36;;;;;;;3.97;3.10;;;21.50;51.10;;;;;;6774354;26;20269;-65
2024/04/14 09:36:38;;;;;;;3.03;2.70;;;21.30;51.40;;;;;;6774159;26;20229;-65
2024/04/14 09:39:41;;;;;;;3.93;2.90;;;21.20;52.70;;;;;;6774345;26;20252;-64
2024/04/14 09:42:45;;;;;;;3.43;3.13;;;21.30;52.80;;;;;;6774574;26;20252;-65
2024/04/14 09:45:48;;;;;;;5.90;3.00;;;21.40;51.80;;;;;;6783901;26;20256;-65
2024/04/14 09:48:53;;;;;;;4.07;2.90;;;21.40;52.30;;;;;;6774389;26;20283;-65
2024/04/14 09:51:56;;;;;;;3.07;2.77;;;21.50;53.10;;;;;;6774465;26;20226;-65
2024/04/14 09:54:58;;;;;;;9.70;3.43;;;21.40;53.50;;;;;;6774041;26;20219;-65
2024/04/14 09:58:00;;;;;;;5.27;3.10;;;21.50;53.00;;;;;;6777893;26;20300;-65
2024/04/14 10:01:06;;;;;;;3.57;2.90;;;21.40;52.60;;;;;;6777863;26;20234;-65
2024/04/14 10:04:10;;;;;;;3.10;2.80;;;21.40;53.50;;;;;;6778129;26;20256;-65
2024/04/14 10:07:13;;;;;;;3.40;3.10;;;21.50;52.80;;;;;;6778337;26;20307;-65
2024/04/14 10:10:15;;;;;;;3.90;3.37;;;21.70;52.90;;;;;;6779927;26;20743;-66
2024/04/14 10:13:17;;;;;;;6.83;3.00;;;21.90;53.10;;;;;;6778754;26;20637;-65
2024/04/14 10:16:23;;;;;;;3.40;2.80;;;22.10;51.00;;;;;;6779467;26;20237;-65
2024/04/14 10:19:25;;;;;;;3.20;2.90;;;22.10;51.80;;;;;;6778096;26;20226;-66
2024/04/14 10:22:37;;;;;;;3.50;3.00;;;22.20;52.10;;;;;;6777656;26;20295;-66
2024/04/14 10:25:45;;;;;;;4.63;3.60;;;22.00;52.20;;;;;;6777822;26;20219;-65
2024/04/14 10:28:57;;;;;;;3.70;3.40;;;22.10;52.10;;;;;;6777726;26;20278;-66
2024/04/14 10:31:59;;;;;;;3.70;3.30;;;22.30;51.90;;;;;;6777921;26;20223;-66
2024/04/14 10:35:11;;;;;;;3.83;2.90;;;22.30;50.90;;;;;;6777259;26;20651;-66
2024/04/14 10:38:20;;;;;;;2.80;2.60;;;22.00;51.30;;;;;;6778198;26;20230;-67
2024/04/14 10:41:22;;;;;;;2.80;2.60;;;22.30;52.40;;;;;;6777828;26;20329;-67
2024/04/14 10:44:24;;;;;;;4.33;3.07;;;22.60;50.90;;;;;;6784260;26;20590;-67
2024/04/14 10:47:26;;;;;;;3.53;3.10;;;22.80;49.30;;;;;;6785912;26;20315;-67
2024/04/14 10:50:28;;;;;;;3.10;2.80;;;22.70;49.30;;;;;;6791690;26;20269;-67
2024/04/14 10:53:30;;;;;;;2.70;2.43;;;22.80;50.60;;;;;;6795061;26;20234;-68
2024/04/14 10:56:32;;;;;;;3.40;3.10;;;22.90;50.60;;;;;;6795819;26;20238;-68
2024/04/14 10:59:33;;;;;;;3.23;2.70;;;23.10;49.50;;;;;;6793801;26;20311;-67
2024/04/14 11:02:35;;;;;;;3.23;2.97;;;23.10;49.40;;;;;;6796876;26;20294;-67
2024/04/14 11:05:37;;;;;;;3.40;3.10;;;22.90;49.20;;;;;;6786560;26;20242;-67
2024/04/14 11:08:41;;;;;;;3.27;2.77;;;22.90;50.30;;;;;;6777791;26;20248;-66
2024/04/14 11:11:43;;;;;;;2.93;2.70;;;22.80;50.60;;;;;;6787306;26;20732;-67
2024/04/14 11:14:45;;;;;;;4.70;2.93;;;22.80;48.90;;;;;;6779882;26;20266;-67
2024/04/14 11:17:47;;;;;;;3.03;2.80;;;22.90;48.90;;;;;;6775754;26;20233;-67
2024/04/14 11:20:49;;;;;;;3.63;2.67;;;22.90;47.70;;;;;;6777742;26;20252;-68
2024/04/14 11:23:51;;;;;;;2.43;2.23;;;22.90;47.20;;;;;;6776935;26;20226;-68
2024/04/14 11:26:53;;;;;;;2.63;2.43;;;23.00;48.10;;;;;;6777122;26;20238;-67
2024/04/14 11:29:55;;;;;;;3.47;3.17;;;23.10;46.40;;;;;;6776771;26;20238;-68
2024/04/14 11:32:57;;;;;;;2.80;2.60;;;23.20;48.80;;;;;;6777206;26;20362;-68
2024/04/14 11:36:00;;;;;;;2.90;2.70;;;23.40;47.60;;;;;;6776800;26;20347;-68
2024/04/14 11:39:05;;;;;;;4.70;2.67;;;23.40;47.50;;;;;;6777008;26;20257;-67
2024/04/14 11:42:06;;;;;;;2.30;2.20;;;23.60;47.30;;;;;;6776896;26;20265;-67
2024/04/14 11:45:10;;;;;;;2.70;2.50;;;23.70;45.20;;;;;;6777649;26;20218;-67
2024/04/14 11:48:12;;;;;;;2.60;2.40;;;23.60;45.70;;;;;;6780263;26;20254;-66
2024/04/14 11:51:14;;;;;;;3.27;2.97;;;23.50;45.70;;;;;;6779257;26;20230;-66
2024/04/14 11:54:16;;;;;;;2.57;2.37;;;23.50;46.50;;;;;;6776593;26;20315;-66
2024/04/14 11:57:18;;;;;;;2.80;2.60;;;23.80;46.40;;;;;;6777793;26;20686;-67
2024/04/14 12:00:19;;;;;;;2.80;2.60;;;23.90;45.80;;;;;;6778807;26;20226;-67
2024/04/14 12:03:21;;;;;;;2.40;2.30;;;24.00;46.50;;;;;;6778908;26;20311;-67
2024/04/14 12:06:23;;;;;;;2.30;2.20;;;24.20;46.20;;;;;;6781123;26;20222;-67
2024/04/14 12:09:25;;;;;;;3.00;2.80;;;24.20;43.30;;;;;;6780998;26;20275;-67
2024/04/14 12:12:27;;;;;;;4.30;2.57;;;24.00;43.90;;;;;;6781146;26;20251;-67
2024/04/14 12:15:29;;;;;;;3.10;2.20;;;24.00;45.50;;;;;;6778208;26;20229;-66
2024/04/14 12:18:31;;;;;;;2.63;2.40;;;24.10;44.80;;;;;;6778994;26;20230;-67
2024/04/14 12:21:34;;;;;;;2.70;2.50;;;24.20;44.20;;;;;;6780939;26;20252;-66
2024/04/14 12:24:36;;;;;;;2.90;2.70;;;24.20;44.50;;;;;;6779298;26;20291;-67
2024/04/14 12:27:38;;;;;;;3.73;2.70;;;24.10;45.70;;;;;;6785883;26;20271;-66
2024/04/14 12:30:40;;;;;;;3.27;3.07;;;24.10;44.50;;;;;;6786457;26;20222;-66
2024/04/14 12:33:52;;;;;;;3.17;2.97;;;24.20;45.80;;;;;;6788344;26;20219;-66
2024/04/14 12:36:54;;;;;;;3.63;2.63;;;24.20;45.30;;;;;;6787930;26;20318;-67
2024/04/14 12:39:56;;;;;;;2.60;2.50;;;24.30;45.00;;;;;;6785914;26;20674;-67
2024/04/14 12:42:58;;;;;;;4.03;3.47;;;24.40;45.90;;;;;;6781023;26;20586;-66
2024/04/14 12:45:59;;;;;;;4.33;2.70;;;24.20;46.40;;;;;;6776376;26;20234;-66
2024/04/14 12:49:02;;;;;;;2.93;2.70;;;24.20;45.90;;;;;;6778412;26;20238;-66
2024/04/14 12:52:04;;;;;;;3.50;2.63;;;24.00;46.90;;;;;;6777936;26;20264;-66
2024/04/14 12:55:06;;;;;;;3.20;2.80;;;24.00;46.80;;;;;;6776435;26;20265;-66
2024/04/14 12:58:08;;;;;;;3.33;3.13;;;24.00;46.30;;;;;;6784589;26;20241;-66
2024/04/14 13:01:10;;;;;;;2.90;2.70;;;24.00;46.00;;;;;;6773730;26;20222;-67
2024/04/14 13:04:12;;;;;;;3.17;2.87;;;24.20;46.60;;;;;;6775366;26;20233;-66
2024/04/14 13:07:14;;;;;;;3.00;2.77;;;24.50;45.70;;;;;;6775404;26;20599;-66
2024/04/14 13:10:16;;;;;;;3.53;2.70;;;24.30;45.90;;;;;;6774612;26;20368;-66
2024/04/14 13:13:18;;;;;;;2.80;2.60;;;24.10;46.30;;;;;;6775401;26;20252;-66
2024/04/14 13:16:20;;;;;;;3.67;2.97;;;24.20;45.30;;;;;;6775224;26;20319;-66
2024/04/14 13:19:22;;;;;;;3.03;2.83;;;24.10;46.00;;;;;;6775811;26;20218;-66
2024/04/14 13:22:24;;;;;;;3.10;2.80;;;24.10;46.20;;;;;;6775181;26;20248;-67
2024/04/14 13:25:26;;;;;;;2.83;2.60;;;23.90;46.80;;;;;;6775764;26;20699;-67
2024/04/14 13:28:30;;;;;;;3.10;2.90;;;23.90;47.10;;;;;;6776042;26;20249;-67
2024/04/14 13:31:32;;;;;;;2.97;2.70;;;24.10;46.80;;;;;;6775778;26;20234;-68
2024/04/14 13:34:34;;;;;;;3.10;2.80;;;24.10;45.70;;;;;;6776022;26;20237;-68
2024/04/14 13:37:36;;;;;;;4.40;2.90;;;24.20;47.00;;;;;;6775792;26;20291;-68
2024/04/14 13:40:39;;;;;;;3.03;2.83;;;24.40;47.00;;;;;;6776495;26;20222;-67
2024/04/14 13:43:41;;;;;;;3.20;2.90;;;24.30;46.40;;;;;;6774090;26;20280;-67
2024/04/14 13:46:43;;;;;;;2.53;2.43;;;24.30;45.70;;;;;;6774758;26;20229;-68
2024/04/14 13:49:45;;;;;;;3.33;2.93;;;24.30;45.20;;;;;;6774766;26;20226;-67
2024/04/14 13:52:47;;;;;;;2.93;2.67;;;24.40;46.00;;;;;;6774210;26;20526;-68
2024/04/14 13:55:48;;;;;;;3.10;2.70;;;24.40;45.00;;;;;;6773550;26;20249;-68
2024/04/14 13:58:54;;;;;;;2.73;2.53;;;24.30;45.10;;;;;;6784038;26;20265;-68
2024/04/14 14:01:56;;;;;;;3.20;2.80;;;24.50;45.60;;;;;;6773658;26;20288;-67
2024/04/14 14:04:57;;;;;;;2.63;2.43;;;24.50;46.10;;;;;;6773418;26;20241;-68
2024/04/14 14:07:59;;;;;;;3.70;2.93;;;24.50;44.40;;;;;;6773602;26;20241;-68
2024/04/14 14:11:01;;;;;;;2.77;2.50;;;24.60;45.30;;;;;;6773435;26;20285;-69
2024/04/14 14:14:04;;;;;;;2.80;2.63;;;24.50;44.40;;;;;;6773223;26;20256;-67
2024/04/14 14:17:06;;;;;;;2.80;2.60;;;24.50;44.50;;;;;;6773122;26;20233;-68
2024/04/14 14:20:08;;;;;;;2.60;2.50;;;24.40;44.40;;;;;;6775856;26;20226;-68
2024/04/14 14:23:10;;;;;;;2.70;2.47;;;24.40;44.30;;;;;;6776905;26;20484;-68
2024/04/14 14:26:12;;;;;;;3.40;2.80;;;24.40;44.30;;;;;;6773381;26;20234;-69
2024/04/14 14:29:14;;;;;;;5.53;2.43;;;24.30;43.40;;;;;;6772439;26;20268;-67
2024/04/14 14:32:16;;;;;;;2.50;2.30;;;24.20;43.70;;;;;;6772521;26;20255;-68
2024/04/14 14:38:38;;;;;;;2.77;2.57;;;24.30;43.30;;;;;;6772510;26;20316;-68
2024/04/14 14:41:41;;;;;;;5.33;2.60;;;24.00;43.10;;;;;;6773115;26;20311;-68
2024/04/14 14:44:42;;;;;;;4.43;2.80;;;24.10;43.60;;;;;;6777300;26;20310;-69
2024/04/14 14:47:45;;;;;;;2.70;2.50;;;24.10;42.60;;;;;;6774959;26;20261;-69
2024/04/14 14:50:47;;;;;;;2.53;2.37;;;24.20;43.00;;;;;;6775499;26;20226;-68
2024/04/14 14:53:49;;;;;;;3.30;2.80;;;24.10;42.80;;;;;;6777641;26;20338;-67
2024/04/14 14:56:51;;;;;;;3.10;2.90;;;24.20;43.70;;;;;;6776574;26;20298;-66
2024/04/14 14:59:53;;;;;;;2.93;2.67;;;24.20;44.90;;;;;;6776921;26;20230;-67
2024/04/14 15:02:55;;;;;;;2.90;2.70;;;24.20;44.60;;;;;;6776289;26;20213;-67
2024/04/14 15:05:57;;;;;;;2.80;2.70;;;24.20;44.40;;;;;;6777213;26;20229;-66
2024/04/14 15:08:59;;;;;;;3.10;2.50;;;24.30;44.00;;;;;;6776779;26;20590;-66
2024/04/14 15:12:01;;;;;;;2.73;2.53;;;24.30;44.40;;;;;;6776481;26;20229;-68
2024/04/14 15:15:03;;;;;;;3.30;2.70;;;24.30;43.10;;;;;;6777797;26;20233;-68
2024/04/14 15:18:05;;;;;;;3.60;2.33;;;24.20;43.60;;;;;;6779818;26;20328;-67
2024/04/14 15:21:10;;;;;;;2.60;2.27;;;24.20;44.10;;;;;;6777004;26;20222;-67
2024/04/14 15:24:11;;;;;;;2.60;2.40;;;24.10;44.20;;;;;;6776537;26;20226;-69
2024/04/14 15:27:13;;;;;;;2.60;2.50;;;24.20;44.00;;;;;;6776073;26;20525;-68
2024/04/14 15:30:15;;;;;;;3.37;2.40;;;24.20;43.10;;;;;;6776524;26;20273;-68
2024/04/14 15:33:17;;;;;;;3.10;2.90;;;24.30;44.60;;;;;;6775521;26;20234;-68
2024/04/14 15:36:19;;;;;;;2.60;2.40;;;24.40;44.00;;;;;;6776521;26;20218;-67
2024/04/14 15:39:21;;;;;;;2.73;2.53;;;24.50;43.90;;;;;;6783106;26;20501;-67
2024/04/14 15:42:23;;;;;;;4.87;2.30;;;24.50;43.80;;;;;;6775543;26;20233;-68
2024/04/14 15:45:25;;;;;;;2.40;2.30;;;24.30;44.50;;;;;;6775989;26;20332;-68
2024/04/14 15:48:26;;;;;;;2.80;2.60;;;24.40;44.80;;;;;;6773738;26;20218;-68
2024/04/14 15:51:28;;;;;;;3.13;2.83;;;24.40;44.30;;;;;;6775736;26;20233;-69